Time;durP1;ratioP1;P1;durP2;ratioP2;P2;SDS_P1;SDS_P2;PMS_P1;PMS_P2;Temp;Humidity;BMP_temperature;BMP_pressure;BME280_temperature;BME280_humidity;BME280_pressure;Samples;Min_cycle;Max_cycle;Signal;HPM_P1;HPM_P2
2021/01/10 00:02:27;;;;;;;40.40;21.63;;;2.10;99.90;;;;;;4997486;28;20453;-78
2021/01/10 00:04:53;;;;;;;32.70;18.92;;;2.10;99.90;;;;;;5006186;28;20500;-78
2021/01/10 00:07:25;;;;;;;34.70;21.88;;;2.20;99.90;;;;;;4996530;28;20214;-78
2021/01/10 00:09:52;;;;;;;29.42;18.48;;;2.10;99.90;;;;;;4997484;28;20202;-78
2021/01/10 00:12:22;;;;;;;35.08;19.77;;;2.10;99.90;;;;;;4993424;28;20237;-78
2021/01/10 00:14:48;;;;;;;35.25;18.73;;;2.10;99.90;;;;;;4998148;28;20199;-78
2021/01/10 00:17:14;;;;;;;35.70;18.73;;;2.10;99.90;;;;;;4993067;28;20225;-78
2021/01/10 00:19:42;;;;;;;33.15;19.60;;;2.10;99.90;;;;;;5010231;28;20975;-78
2021/01/10 00:22:11;;;;;;;26.92;18.13;;;2.10;99.90;;;;;;4999331;28;20253;-77
2021/01/10 00:24:36;;;;;;;32.58;20.45;;;2.30;99.90;;;;;;5010069;28;20202;-77
2021/01/10 00:27:02;;;;;;;38.70;20.40;;;2.20;99.90;;;;;;4994330;28;20240;-77
2021/01/10 00:29:28;;;;;;;30.63;17.60;;;2.20;99.90;;;;;;4994926;28;20440;-77
2021/01/10 00:31:53;;;;;;;30.03;20.47;;;2.20;99.90;;;;;;5003931;28;20220;-77
2021/01/10 00:34:19;;;;;;;29.50;17.87;;;2.30;99.90;;;;;;4994896;28;20182;-79
2021/01/10 00:36:45;;;;;;;39.50;20.67;;;2.20;99.90;;;;;;5001494;28;20224;-79
2021/01/10 00:39:10;;;;;;;31.70;20.37;;;2.30;99.90;;;;;;5011990;28;20197;-79
2021/01/10 00:41:37;;;;;;;32.40;19.47;;;2.30;99.90;;;;;;5011272;28;20214;-79
2021/01/10 00:44:03;;;;;;;27.30;17.73;;;2.40;99.90;;;;;;5012777;28;20557;-77
2021/01/10 00:46:30;;;;;;;35.33;18.85;;;2.30;99.90;;;;;;5009154;28;20628;-77
2021/01/10 00:48:55;;;;;;;37.20;19.88;;;2.40;99.90;;;;;;5005965;28;20548;-78
2021/01/10 00:51:21;;;;;;;30.63;20.03;;;2.30;99.90;;;;;;5010917;28;20214;-77
2021/01/10 00:53:47;;;;;;;31.97;19.47;;;2.30;99.90;;;;;;4994397;28;20222;-79
2021/01/10 00:56:12;;;;;;;35.13;20.13;;;2.30;99.90;;;;;;4992894;28;20194;-79
2021/01/10 00:58:38;;;;;;;34.57;21.43;;;2.30;99.90;;;;;;4994406;28;20668;-79
2021/01/10 01:01:04;;;;;;;38.03;19.63;;;2.30;99.90;;;;;;4994299;28;20538;-79
2021/01/10 01:03:29;;;;;;;36.57;20.90;;;2.30;99.90;;;;;;4993135;28;20669;-79
2021/01/10 01:05:55;;;;;;;37.63;21.60;;;2.30;99.90;;;;;;5009973;28;20210;-79
2021/01/10 01:08:21;;;;;;;36.50;22.50;;;2.20;99.90;;;;;;5007376;28;20218;-80
2021/01/10 01:10:47;;;;;;;32.23;19.53;;;2.20;99.90;;;;;;4993077;28;20195;-79
2021/01/10 01:13:13;;;;;;;36.78;22.95;;;2.20;99.90;;;;;;4992580;28;20246;-79
2021/01/10 01:15:40;;;;;;;29.00;19.40;;;2.30;99.90;;;;;;4992701;28;20629;-79
2021/01/10 01:18:06;;;;;;;30.05;19.48;;;2.20;99.90;;;;;;5000580;28;20565;-79
2021/01/10 01:20:32;;;;;;;35.43;21.90;;;2.20;99.90;;;;;;5012294;28;20198;-79
2021/01/10 01:22:57;;;;;;;36.57;22.63;;;2.20;99.90;;;;;;4993289;28;20462;-79
2021/01/10 01:25:23;;;;;;;39.03;20.13;;;2.30;99.90;;;;;;4992935;28;20203;-79
2021/01/10 01:27:49;;;;;;;36.03;21.07;;;2.30;99.90;;;;;;4992960;28;20218;-79
2021/01/10 01:30:15;;;;;;;38.13;23.83;;;2.30;99.90;;;;;;4993016;28;20385;-79
2021/01/10 01:32:40;;;;;;;41.80;22.90;;;2.20;99.90;;;;;;4992573;28;20214;-80
2021/01/10 01:35:06;;;;;;;36.33;23.00;;;2.20;99.90;;;;;;4993485;28;20201;-79
2021/01/10 01:37:35;;;;;;;33.78;21.77;;;2.20;99.90;;;;;;4997541;28;20237;-78
2021/01/10 01:40:05;;;;;;;37.90;22.27;;;2.10;99.90;;;;;;4993898;28;20193;-78
2021/01/10 01:42:31;;;;;;;42.70;22.52;;;2.20;99.90;;;;;;5008746;28;20236;-78
2021/01/10 01:44:57;;;;;;;42.87;22.20;;;2.20;99.90;;;;;;4994148;28;20638;-78
2021/01/10 01:47:23;;;;;;;36.60;22.77;;;2.20;99.90;;;;;;4997826;28;20225;-78
2021/01/10 01:49:49;;;;;;;35.83;23.02;;;2.20;99.90;;;;;;5012537;28;20429;-78
2021/01/10 01:52:15;;;;;;;39.35;21.58;;;2.10;99.90;;;;;;4994445;28;20236;-79
2021/01/10 01:54:42;;;;;;;34.75;22.88;;;2.10;99.90;;;;;;5012389;28;20186;-79
2021/01/10 01:57:07;;;;;;;34.65;22.45;;;2.10;99.90;;;;;;4990657;28;20241;-79
2021/01/10 01:59:33;;;;;;;39.60;22.33;;;2.00;99.90;;;;;;5010387;28;20194;-79
2021/01/10 02:01:59;;;;;;;40.47;22.40;;;2.10;99.90;;;;;;5000928;28;20249;-79
2021/01/10 02:04:34;;;;;;;37.67;21.47;;;2.20;99.90;;;;;;4988465;28;20202;-79
2021/01/10 02:07:14;;;;;;;29.98;21.98;;;2.10;99.90;;;;;;4993561;28;20213;-79
2021/01/10 02:09:46;;;;;;;38.58;22.83;;;2.10;99.90;;;;;;5010445;28;20200;-79
2021/01/10 02:12:13;;;;;;;33.05;21.92;;;2.10;99.90;;;;;;4998243;28;20205;-79
2021/01/10 02:15:06;;;;;;;33.47;21.02;;;2.20;99.90;;;;;;4991979;28;20597;-79
2021/01/10 02:17:33;;;;;;;36.65;20.40;;;2.20;99.90;;;;;;4991614;28;20214;-79
2021/01/10 02:20:05;;;;;;;33.20;21.50;;;2.10;99.90;;;;;;4990836;28;20221;-79
2021/01/10 02:22:49;;;;;;;37.05;23.00;;;2.20;99.90;;;;;;4994658;28;20580;-79
2021/01/10 02:25:15;;;;;;;38.20;22.65;;;2.10;99.90;;;;;;4991982;28;20202;-79
2021/01/10 02:27:44;;;;;;;34.67;22.10;;;2.10;99.90;;;;;;4991540;28;20681;-79
2021/01/10 02:30:11;;;;;;;35.13;22.10;;;2.20;99.90;;;;;;5006540;28;20429;-79
2021/01/10 02:32:43;;;;;;;30.70;21.13;;;2.20;99.90;;;;;;4999995;28;20566;-79
2021/01/10 02:35:11;;;;;;;36.30;21.58;;;2.10;99.90;;;;;;4998250;28;20695;-79
2021/01/10 02:38:10;;;;;;;34.70;20.77;;;2.10;99.90;;;;;;4998188;28;20615;-79
2021/01/10 02:40:44;;;;;;;35.40;22.85;;;2.20;99.90;;;;;;4997053;28;20300;-77
2021/01/10 02:43:21;;;;;;;30.73;20.17;;;2.10;99.90;;;;;;5013698;28;20304;-78
2021/01/10 02:45:49;;;;;;;40.63;23.13;;;2.00;99.90;;;;;;4997553;28;20307;-77
2021/01/10 02:48:15;;;;;;;37.72;21.85;;;2.10;99.90;;;;;;5007737;28;20672;-78
2021/01/10 02:50:41;;;;;;;33.03;20.33;;;2.10;99.90;;;;;;5018799;28;20204;-78
2021/01/10 02:53:07;;;;;;;37.70;22.05;;;2.10;99.90;;;;;;4997646;28;20222;-77
2021/01/10 02:55:33;;;;;;;32.00;21.40;;;2.10;99.90;;;;;;4999072;28;20205;-77
2021/01/10 02:58:26;;;;;;;43.67;23.07;;;2.10;99.90;;;;;;5014806;28;20202;-78
2021/01/10 03:00:59;;;;;;;38.83;22.05;;;2.10;99.90;;;;;;5013734;28;20469;-77
2021/01/10 03:03:27;;;;;;;36.08;21.67;;;2.10;99.90;;;;;;5001176;28;20565;-77
2021/01/10 03:05:54;;;;;;;29.88;20.35;;;2.10;99.90;;;;;;5012255;28;20202;-78
2021/01/10 03:08:20;;;;;;;31.65;21.02;;;2.10;99.90;;;;;;5009313;28;20592;-77
2021/01/10 03:10:48;;;;;;;36.17;22.07;;;2.20;99.90;;;;;;5015277;28;20192;-77
2021/01/10 03:13:15;;;;;;;34.90;20.02;;;2.20;99.90;;;;;;5003761;28;20228;-78
2021/01/10 03:15:41;;;;;;;38.83;22.15;;;2.20;99.90;;;;;;5009644;28;20285;-77
2021/01/10 03:18:17;;;;;;;34.07;20.50;;;2.20;99.90;;;;;;4999994;28;20290;-77
2021/01/10 03:20:42;;;;;;;44.70;20.75;;;2.20;99.90;;;;;;5015082;28;20204;-77
2021/01/10 03:23:09;;;;;;;31.60;20.63;;;2.20;99.90;;;;;;5013935;28;20214;-77
2021/01/10 03:25:35;;;;;;;30.73;20.55;;;2.30;99.90;;;;;;4997622;28;20461;-78
2021/01/10 03:28:01;;;;;;;33.20;19.35;;;2.20;99.90;;;;;;4999723;28;20265;-77
2021/01/10 03:30:27;;;;;;;34.73;19.27;;;2.20;99.90;;;;;;4999345;28;20170;-78
2021/01/10 03:32:53;;;;;;;31.97;21.00;;;2.10;99.90;;;;;;5016805;28;20700;-79
2021/01/10 03:35:18;;;;;;;40.17;20.80;;;2.10;99.90;;;;;;5000895;28;20252;-79
2021/01/10 03:37:45;;;;;;;32.10;18.70;;;2.10;99.90;;;;;;4994401;28;20528;-78
2021/01/10 03:40:12;;;;;;;33.55;20.27;;;2.10;99.90;;;;;;4994683;28;20194;-79
2021/01/10 03:42:38;;;;;;;32.15;21.02;;;2.10;99.90;;;;;;4993928;28;20261;-79
2021/01/10 03:45:05;;;;;;;28.27;19.40;;;2.10;99.90;;;;;;4997415;28;20205;-79
2021/01/10 03:47:31;;;;;;;29.90;19.35;;;2.10;99.90;;;;;;5012891;28;20453;-79
2021/01/10 03:49:57;;;;;;;34.47;20.30;;;2.10;99.90;;;;;;5002292;28;20240;-79
2021/01/10 03:52:22;;;;;;;32.60;19.57;;;2.20;99.90;;;;;;5009077;28;20703;-79
2021/01/10 03:54:48;;;;;;;38.30;21.37;;;2.10;99.90;;;;;;5011083;28;20724;-78
2021/01/10 03:57:14;;;;;;;32.30;19.07;;;2.10;99.90;;;;;;5000571;28;20585;-79
2021/01/10 03:59:39;;;;;;;32.40;19.53;;;2.10;99.90;;;;;;4995826;28;20574;-79
2021/01/10 04:02:05;;;;;;;37.67;19.40;;;2.10;99.90;;;;;;5007405;28;20225;-79
2021/01/10 04:04:31;;;;;;;29.27;19.80;;;2.00;99.90;;;;;;5006446;28;20538;-77
2021/01/10 04:06:57;;;;;;;34.90;21.20;;;1.90;99.90;;;;;;4989280;28;20203;-77
2021/01/10 04:09:22;;;;;;;36.27;19.00;;;1.90;99.90;;;;;;4996235;28;20202;-78
2021/01/10 04:11:48;;;;;;;30.77;19.93;;;1.90;99.90;;;;;;4984658;28;20222;-76
2021/01/10 04:14:14;;;;;;;26.73;18.17;;;2.00;99.90;;;;;;5011400;28;20199;-77
2021/01/10 04:16:39;;;;;;;33.27;19.00;;;2.00;99.90;;;;;;5014947;28;20263;-77
2021/01/10 04:19:05;;;;;;;35.37;19.43;;;1.90;99.90;;;;;;5000119;28;20204;-76
2021/01/10 04:21:35;;;;;;;33.73;20.30;;;1.90;99.90;;;;;;5017722;28;20229;-76
2021/01/10 04:24:01;;;;;;;40.33;18.25;;;1.80;99.90;;;;;;5004832;28;20205;-76
2021/01/10 04:26:28;;;;;;;36.22;18.95;;;1.80;99.90;;;;;;5011093;28;20214;-76
2021/01/10 04:28:53;;;;;;;31.52;18.77;;;1.80;99.90;;;;;;5009383;28;20198;-76
2021/01/10 04:31:19;;;;;;;32.43;18.23;;;1.80;99.90;;;;;;5002207;28;20218;-76
2021/01/10 04:33:45;;;;;;;31.43;18.03;;;1.70;99.90;;;;;;5001037;28;20521;-76
2021/01/10 04:36:11;;;;;;;30.20;17.80;;;1.70;99.90;;;;;;4999301;28;20452;-76
2021/01/10 04:38:37;;;;;;;32.07;18.63;;;1.70;99.90;;;;;;5017377;28;20154;-76
2021/01/10 04:41:04;;;;;;;32.47;19.97;;;1.70;99.90;;;;;;5009366;28;20442;-76
2021/01/10 04:43:30;;;;;;;26.92;17.60;;;1.60;99.90;;;;;;5008040;28;20519;-76
2021/01/10 04:45:56;;;;;;;33.20;18.10;;;1.60;99.90;;;;;;5011516;28;20249;-76
2021/01/10 04:48:24;;;;;;;32.38;18.27;;;1.60;99.90;;;;;;5000455;28;20206;-76
2021/01/10 04:50:50;;;;;;;33.05;17.80;;;1.60;99.90;;;;;;5018157;28;20208;-76
2021/01/10 04:53:19;;;;;;;24.02;16.77;;;1.50;99.90;;;;;;4993994;28;20199;-76
2021/01/10 04:55:47;;;;;;;32.60;17.55;;;1.50;99.90;;;;;;4979988;28;20222;-75
2021/01/10 04:58:13;;;;;;;34.25;20.25;;;1.40;99.90;;;;;;5018858;28;20205;-76
2021/01/10 05:00:40;;;;;;;39.08;20.85;;;1.40;99.90;;;;;;4994552;28;20280;-77
2021/01/10 05:03:08;;;;;;;35.67;20.23;;;1.40;99.90;;;;;;4997290;28;20213;-76
2021/01/10 05:05:35;;;;;;;31.30;18.40;;;1.40;99.90;;;;;;5008468;28;20244;-76
2021/01/10 05:08:05;;;;;;;34.75;20.10;;;1.40;99.90;;;;;;4992372;28;20569;-76
2021/01/10 05:10:31;;;;;;;35.33;19.60;;;1.40;99.90;;;;;;5007802;28;20205;-77
2021/01/10 05:12:57;;;;;;;33.87;19.77;;;1.40;99.90;;;;;;4998418;28;20223;-76
2021/01/10 05:15:22;;;;;;;30.37;18.53;;;1.30;99.90;;;;;;5014050;28;20194;-75
2021/01/10 05:17:53;;;;;;;33.67;19.07;;;1.30;99.90;;;;;;5002738;28;20287;-76
2021/01/10 05:20:18;;;;;;;32.45;18.25;;;1.30;99.90;;;;;;5020992;28;20680;-76
2021/01/10 05:22:47;;;;;;;35.33;19.00;;;1.30;99.90;;;;;;5003070;28;20250;-76
2021/01/10 05:25:14;;;;;;;29.98;18.95;;;1.30;99.90;;;;;;5013263;28;20708;-76
2021/01/10 05:27:40;;;;;;;31.88;18.38;;;1.30;99.90;;;;;;5015519;28;20206;-76
2021/01/10 05:30:06;;;;;;;32.10;18.73;;;1.30;99.90;;;;;;5000363;28;20250;-76
2021/01/10 05:32:32;;;;;;;37.05;18.00;;;1.30;99.90;;;;;;5002470;28;20449;-76
2021/01/10 05:34:59;;;;;;;32.20;19.80;;;1.30;99.90;;;;;;5001857;28;20206;-76
2021/01/10 05:37:25;;;;;;;35.13;20.02;;;1.30;99.90;;;;;;4999402;28;20233;-75
2021/01/10 05:39:51;;;;;;;28.03;17.60;;;1.30;99.90;;;;;;5020313;28;20206;-76
2021/01/10 05:42:18;;;;;;;49.43;19.77;;;1.30;99.90;;;;;;5000224;28;20446;-77
2021/01/10 05:44:43;;;;;;;35.28;17.77;;;1.30;99.90;;;;;;4999593;28;20467;-77
2021/01/10 05:47:11;;;;;;;35.37;18.70;;;1.30;99.90;;;;;;4996402;28;20201;-76
2021/01/10 05:49:54;;;;;;;34.33;17.60;;;1.20;99.90;;;;;;5009162;28;20158;-76
2021/01/10 05:52:22;;;;;;;32.60;19.70;;;1.20;99.90;;;;;;5016169;28;20610;-76
2021/01/10 05:54:49;;;;;;;32.80;19.40;;;1.30;99.90;;;;;;5015959;28;20218;-76
2021/01/10 05:57:25;;;;;;;41.17;20.63;;;1.30;99.90;;;;;;5006339;28;20305;-77
2021/01/10 05:59:52;;;;;;;31.95;19.83;;;1.20;99.90;;;;;;5019706;28;20201;-76
2021/01/10 06:02:29;;;;;;;27.55;18.20;;;1.20;99.90;;;;;;5019228;28;20225;-76
2021/01/10 06:05:07;;;;;;;29.95;17.70;;;1.20;99.90;;;;;;5006742;28;20649;-76
2021/01/10 06:07:32;;;;;;;40.13;20.58;;;1.20;99.90;;;;;;5002742;28;20213;-76
2021/01/10 06:09:58;;;;;;;31.33;19.10;;;1.20;99.90;;;;;;5008297;28;20182;-77
2021/01/10 06:12:24;;;;;;;30.43;18.53;;;1.10;99.90;;;;;;4999075;28;20233;-76
2021/01/10 06:14:51;;;;;;;39.63;19.33;;;1.20;99.90;;;;;;5009392;28;20536;-76
2021/01/10 06:17:17;;;;;;;42.45;19.60;;;1.20;99.90;;;;;;5014553;28;20481;-76
2021/01/10 06:19:49;;;;;;;34.03;20.20;;;1.20;99.90;;;;;;5017902;28;20668;-76
2021/01/10 06:22:16;;;;;;;36.00;20.33;;;1.20;99.90;;;;;;5010568;28;20221;-77
2021/01/10 06:24:45;;;;;;;28.88;19.60;;;1.20;99.90;;;;;;4995759;28;20206;-76
2021/01/10 06:27:22;;;;;;;24.58;18.00;;;1.20;99.90;;;;;;5009042;28;20210;-76
2021/01/10 06:29:54;;;;;;;34.20;20.73;;;1.20;99.90;;;;;;5004639;28;20166;-76
2021/01/10 06:32:23;;;;;;;40.03;19.50;;;1.20;99.90;;;;;;5007541;28;20219;-76
2021/01/10 06:34:50;;;;;;;37.20;18.30;;;1.20;99.90;;;;;;5001341;28;20215;-77
2021/01/10 06:37:18;;;;;;;30.83;19.27;;;1.20;99.90;;;;;;4996079;28;20576;-77
2021/01/10 06:39:48;;;;;;;29.85;18.45;;;1.20;99.90;;;;;;5010308;28;20607;-77
2021/01/10 06:42:15;;;;;;;36.95;19.02;;;1.20;99.90;;;;;;5016156;28;20213;-76
2021/01/10 06:44:51;;;;;;;36.50;20.83;;;1.30;99.90;;;;;;4998571;28;20201;-76
2021/01/10 06:47:22;;;;;;;37.75;22.13;;;1.20;99.90;;;;;;5005741;28;20283;-76
2021/01/10 06:49:48;;;;;;;38.88;22.23;;;1.30;99.90;;;;;;4999050;28;20177;-77
2021/01/10 06:52:16;;;;;;;38.58;21.02;;;1.30;99.90;;;;;;4999933;28;20206;-77
2021/01/10 06:54:44;;;;;;;39.47;20.83;;;1.30;99.90;;;;;;5004536;28;20212;-77
2021/01/10 06:57:10;;;;;;;33.47;19.52;;;1.30;99.90;;;;;;5000259;28;20254;-76
2021/01/10 07:00:10;;;;;;;35.00;17.20;;;1.30;99.90;;;;;;5006535;28;20197;-75
2021/01/10 07:03:10;;;;;;;34.83;18.58;;;1.30;99.90;;;;;;4994154;28;20214;-76
2021/01/10 07:06:10;;;;;;;40.70;20.30;;;1.20;99.90;;;;;;4991157;28;20206;-78
2021/01/10 07:09:06;;;;;;;37.30;19.33;;;1.20;99.90;;;;;;5009329;28;20205;-77
2021/01/10 07:11:33;;;;;;;29.23;18.30;;;1.20;99.90;;;;;;4993083;28;20233;-77
2021/01/10 07:13:59;;;;;;;32.15;18.90;;;1.20;99.90;;;;;;5009895;28;20197;-77
2021/01/10 07:16:25;;;;;;;32.77;19.07;;;1.30;99.90;;;;;;4992460;28;20689;-77
2021/01/10 07:18:55;;;;;;;33.88;21.42;;;1.30;99.90;;;;;;5000592;28;20233;-77
2021/01/10 07:21:40;;;;;;;34.60;20.27;;;1.30;99.90;;;;;;5006249;28;20229;-77
2021/01/10 07:24:26;;;;;;;29.83;18.23;;;1.40;99.90;;;;;;4996338;28;20261;-76
2021/01/10 07:26:59;;;;;;;33.42;19.40;;;1.30;99.90;;;;;;5009282;28;20732;-77
2021/01/10 07:29:38;;;;;;;28.42;19.15;;;1.30;99.90;;;;;;5009155;28;20252;-77
2021/01/10 07:32:11;;;;;;;34.00;19.50;;;1.40;99.90;;;;;;4999985;28;20228;-76
2021/01/10 07:34:43;;;;;;;39.72;19.33;;;1.40;99.90;;;;;;5021900;28;20285;-76
2021/01/10 07:37:11;;;;;;;30.50;18.95;;;1.40;99.90;;;;;;5019525;28;20316;-77
2021/01/10 07:39:52;;;;;;;31.10;19.60;;;1.30;99.90;;;;;;5006071;28;20195;-76
2021/01/10 07:42:21;;;;;;;41.40;21.08;;;1.30;99.90;;;;;;5006978;28;20269;-77
2021/01/10 07:44:51;;;;;;;37.00;20.25;;;1.40;99.90;;;;;;5003695;28;20226;-77
2021/01/10 07:47:38;;;;;;;32.22;20.63;;;1.40;99.90;;;;;;5004901;28;20585;-77
2021/01/10 07:50:07;;;;;;;34.15;21.92;;;1.40;99.90;;;;;;5003381;28;20210;-77
2021/01/10 07:52:49;;;;;;;36.90;20.95;;;1.30;99.90;;;;;;5012214;28;20233;-77
2021/01/10 07:55:18;;;;;;;37.58;20.27;;;1.30;99.90;;;;;;4980011;28;20197;-77
2021/01/10 07:57:51;;;;;;;30.90;19.52;;;1.50;99.90;;;;;;4995236;28;20209;-76
2021/01/10 08:00:21;;;;;;;36.63;21.80;;;1.40;99.90;;;;;;4995105;28;20285;-77
2021/01/10 08:02:52;;;;;;;39.70;23.20;;;1.50;99.90;;;;;;4997080;28;20269;-78
2021/01/10 08:05:33;;;;;;;36.83;21.10;;;1.30;99.90;;;;;;5002288;28;20706;-76
2021/01/10 08:08:05;;;;;;;32.75;20.30;;;1.40;99.90;;;;;;5015321;28;20210;-76
2021/01/10 08:10:53;;;;;;;40.97;20.08;;;1.30;99.90;;;;;;5004376;28;20191;-78
2021/01/10 08:13:39;;;;;;;34.03;20.80;;;1.40;99.90;;;;;;5010628;28;20233;-77
2021/01/10 08:16:12;;;;;;;35.70;22.02;;;1.40;99.90;;;;;;5003253;28;20720;-77
2021/01/10 08:18:40;;;;;;;29.35;18.60;;;1.40;99.90;;;;;;5003129;28;20194;-77
2021/01/10 08:21:11;;;;;;;37.28;21.15;;;1.50;99.90;;;;;;5003536;28;20190;-76
2021/01/10 08:23:38;;;;;;;34.22;19.58;;;1.50;99.90;;;;;;5002910;28;20241;-77
2021/01/10 08:26:10;;;;;;;35.65;20.67;;;1.50;99.90;;;;;;4991080;28;20356;-77
2021/01/10 08:28:39;;;;;;;30.23;19.00;;;1.40;99.90;;;;;;5011880;28;20167;-77
2021/01/10 08:31:08;;;;;;;35.60;19.52;;;1.40;99.90;;;;;;5009004;28;20588;-76
2021/01/10 08:33:34;;;;;;;34.40;19.58;;;1.50;99.90;;;;;;5007808;28;20186;-77
2021/01/10 08:36:15;;;;;;;30.67;18.55;;;1.50;99.90;;;;;;4997825;28;20679;-78
2021/01/10 08:39:03;;;;;;;38.63;20.27;;;1.60;99.90;;;;;;4983135;28;20174;-77
2021/01/10 08:41:42;;;;;;;29.52;18.42;;;1.60;99.90;;;;;;5002320;28;20348;-77
2021/01/10 08:44:13;;;;;;;35.58;20.08;;;1.50;99.90;;;;;;4991436;28;20195;-77
2021/01/10 08:46:50;;;;;;;32.47;18.70;;;1.60;99.90;;;;;;4995003;28;20694;-76
2021/01/10 08:49:23;;;;;;;23.50;17.30;;;1.60;99.90;;;;;;4999189;28;20265;-77
2021/01/10 08:51:49;;;;;;;35.88;19.48;;;1.60;99.90;;;;;;5011378;28;20293;-76
2021/01/10 08:54:23;;;;;;;28.33;19.40;;;1.60;99.90;;;;;;5006983;28;20252;-76
2021/01/10 08:56:53;;;;;;;28.17;19.35;;;1.60;99.90;;;;;;5002937;28;20232;-77
2021/01/10 08:59:19;;;;;;;38.67;21.30;;;1.60;99.90;;;;;;4993919;28;20656;-76
2021/01/10 09:01:49;;;;;;;28.92;18.83;;;1.60;99.90;;;;;;5009447;28;20301;-77
2021/01/10 09:04:16;;;;;;;32.35;19.02;;;1.60;99.90;;;;;;5011499;28;20197;-78
2021/01/10 09:07:01;;;;;;;34.88;19.95;;;1.50;99.90;;;;;;4992556;28;20221;-77
2021/01/10 09:09:46;;;;;;;32.25;19.40;;;1.50;99.90;;;;;;5000368;28;20198;-78
2021/01/10 09:12:47;;;;;;;31.48;18.15;;;1.50;99.90;;;;;;5004437;28;20244;-77
2021/01/10 09:15:13;;;;;;;33.35;17.55;;;1.50;99.90;;;;;;4996927;28;20197;-77
2021/01/10 09:17:45;;;;;;;23.27;17.40;;;1.50;99.90;;;;;;5009383;28;20259;-77
2021/01/10 09:20:25;;;;;;;26.80;17.90;;;1.60;99.90;;;;;;5009311;28;20198;-77
2021/01/10 09:22:51;;;;;;;27.75;17.48;;;1.60;99.90;;;;;;4992907;28;20215;-78
2021/01/10 09:25:18;;;;;;;26.75;17.15;;;1.60;99.90;;;;;;5005842;28;20210;-77
2021/01/10 09:28:13;;;;;;;25.52;16.77;;;1.60;99.90;;;;;;5006426;28;20241;-76
2021/01/10 09:30:46;;;;;;;30.33;17.40;;;1.60;99.90;;;;;;5006814;28;20194;-77
2021/01/10 09:33:12;;;;;;;27.13;16.77;;;1.80;99.90;;;;;;4993793;28;20202;-78
2021/01/10 09:35:47;;;;;;;27.10;16.20;;;1.80;99.90;;;;;;5010196;28;20197;-78
2021/01/10 09:38:16;;;;;;;27.60;16.13;;;1.80;99.90;;;;;;5005993;28;20264;-78
2021/01/10 09:41:06;;;;;;;35.60;17.25;;;1.80;99.90;;;;;;5007699;28;20673;-78
2021/01/10 09:43:47;;;;;;;26.38;14.13;;;1.80;99.90;;;;;;5002615;28;20211;-78
2021/01/10 09:46:34;;;;;;;22.05;15.40;;;1.70;99.90;;;;;;5003690;28;20533;-78
2021/01/10 09:49:07;;;;;;;26.02;16.40;;;1.70;99.90;;;;;;5003438;28;20660;-77
2021/01/10 09:51:44;;;;;;;20.50;15.25;;;1.80;99.90;;;;;;5011122;28;20224;-78
2021/01/10 09:54:17;;;;;;;27.50;15.10;;;1.80;99.90;;;;;;4992363;28;20202;-79
2021/01/10 09:56:45;;;;;;;22.48;14.68;;;1.80;99.90;;;;;;4991349;28;20219;-79
2021/01/10 09:59:36;;;;;;;33.30;15.48;;;1.90;99.90;;;;;;5009638;28;20170;-78
2021/01/10 10:02:12;;;;;;;27.75;16.02;;;1.90;99.90;;;;;;5010767;28;20580;-78
2021/01/10 10:04:37;;;;;;;24.08;15.30;;;1.80;99.90;;;;;;5002501;28;20181;-79
2021/01/10 10:07:05;;;;;;;24.50;16.90;;;1.80;99.90;;;;;;4994302;28;20222;-78
2021/01/10 10:09:51;;;;;;;26.15;14.18;;;1.90;99.90;;;;;;4990814;28;20420;-78
2021/01/10 10:12:18;;;;;;;24.45;15.30;;;2.00;99.90;;;;;;4979267;28;20210;-77
2021/01/10 10:14:51;;;;;;;22.73;14.32;;;1.90;99.90;;;;;;5006560;28;20251;-77
2021/01/10 10:17:18;;;;;;;23.13;15.73;;;1.90;99.90;;;;;;4997681;28;20206;-78
2021/01/10 10:19:43;;;;;;;23.52;13.70;;;2.00;99.90;;;;;;5008363;28;20261;-78
2021/01/10 10:22:22;;;;;;;24.00;14.10;;;2.00;99.90;;;;;;4996376;28;20306;-78
2021/01/10 10:24:48;;;;;;;20.25;13.57;;;2.00;99.90;;;;;;4990830;28;20198;-77
2021/01/10 10:27:14;;;;;;;24.63;14.30;;;2.00;99.90;;;;;;5006184;28;20206;-78
2021/01/10 10:29:40;;;;;;;29.30;15.03;;;1.90;99.90;;;;;;4992376;28;20444;-78
2021/01/10 10:32:06;;;;;;;23.33;13.10;;;1.90;99.90;;;;;;4989926;28;20755;-78
2021/01/10 10:34:32;;;;;;;21.55;14.15;;;2.10;99.90;;;;;;4999338;28;20619;-77
2021/01/10 10:36:58;;;;;;;19.30;13.90;;;2.20;99.90;;;;;;5001978;28;20301;-78
2021/01/10 10:39:24;;;;;;;24.58;15.02;;;2.20;99.90;;;;;;5011285;28;20197;-77
2021/01/10 10:41:49;;;;;;;21.90;13.60;;;2.20;99.90;;;;;;5009976;28;20221;-77
2021/01/10 10:44:15;;;;;;;21.70;13.67;;;2.10;99.90;;;;;;5006715;28;20183;-78
2021/01/10 10:46:41;;;;;;;16.93;12.40;;;2.20;99.90;;;;;;4998459;28;20225;-77
2021/01/10 10:49:07;;;;;;;20.00;11.68;;;2.20;99.90;;;;;;4992382;28;20194;-77
2021/01/10 10:51:32;;;;;;;18.10;12.00;;;2.30;99.90;;;;;;5007487;28;20213;-77
2021/01/10 10:53:58;;;;;;;19.60;13.00;;;2.30;99.90;;;;;;4996647;28;20197;-78
2021/01/10 10:56:37;;;;;;;20.53;12.20;;;2.30;99.90;;;;;;4995785;28;20586;-78
2021/01/10 10:59:03;;;;;;;16.65;11.38;;;2.30;99.90;;;;;;5011637;28;20268;-77
2021/01/10 11:01:46;;;;;;;17.85;11.93;;;2.20;99.90;;;;;;5001401;28;20348;-78
2021/01/10 11:04:12;;;;;;;16.65;10.77;;;2.20;99.90;;;;;;4991518;28;20200;-78
2021/01/10 11:06:38;;;;;;;22.60;11.70;;;2.20;99.90;;;;;;4993997;28;20229;-78
2021/01/10 11:09:06;;;;;;;20.23;12.35;;;2.20;99.90;;;;;;5009813;28;20499;-77
2021/01/10 11:11:43;;;;;;;15.77;11.75;;;2.30;99.90;;;;;;4995109;28;20221;-78
2021/01/10 11:14:10;;;;;;;19.33;11.52;;;2.30;99.90;;;;;;4995453;28;20204;-77
2021/01/10 11:16:37;;;;;;;18.90;11.63;;;2.40;99.90;;;;;;4996306;28;20272;-78
2021/01/10 11:19:08;;;;;;;18.40;10.15;;;2.40;99.90;;;;;;5007801;28;20190;-77
2021/01/10 11:21:36;;;;;;;22.17;11.60;;;2.40;99.90;;;;;;5010407;28;20218;-78
2021/01/10 11:24:03;;;;;;;16.30;9.98;;;2.40;99.90;;;;;;4995733;28;20205;-77
2021/01/10 11:26:29;;;;;;;17.42;12.43;;;2.40;99.90;;;;;;4997535;28;20225;-77
2021/01/10 11:28:56;;;;;;;16.45;10.60;;;2.40;99.90;;;;;;5001628;28;20207;-77
2021/01/10 11:31:23;;;;;;;13.70;9.18;;;2.40;99.90;;;;;;5000105;28;20217;-78
2021/01/10 11:33:49;;;;;;;12.65;9.18;;;2.40;99.90;;;;;;4998110;28;20202;-77
2021/01/10 11:36:15;;;;;;;15.40;10.87;;;2.40;99.90;;;;;;5000014;28;20213;-77
2021/01/10 11:38:42;;;;;;;12.43;9.73;;;2.40;99.90;;;;;;5007148;28;20553;-77
2021/01/10 11:41:12;;;;;;;14.48;9.52;;;2.50;99.90;;;;;;5004116;28;20229;-79
2021/01/10 11:43:39;;;;;;;11.65;9.52;;;2.50;99.90;;;;;;4996966;28;20190;-77
2021/01/10 11:46:07;;;;;;;12.40;8.82;;;2.50;99.90;;;;;;4997376;28;20202;-77
2021/01/10 11:48:37;;;;;;;14.93;10.18;;;2.60;99.90;;;;;;5011789;28;20782;-77
2021/01/10 11:51:04;;;;;;;12.43;9.02;;;2.60;99.90;;;;;;5003546;28;20340;-77
2021/01/10 11:53:30;;;;;;;12.05;8.40;;;2.60;99.90;;;;;;5015608;28;20186;-77
2021/01/10 11:56:00;;;;;;;17.48;10.35;;;2.70;99.90;;;;;;5005789;28;20706;-77
2021/01/10 11:58:26;;;;;;;10.98;7.95;;;2.70;99.90;;;;;;4975073;28;20246;-77
2021/01/10 12:00:54;;;;;;;20.48;8.38;;;2.80;99.90;;;;;;4987757;28;20175;-77
2021/01/10 12:03:21;;;;;;;16.75;8.93;;;2.80;99.90;;;;;;4993441;28;20202;-77
2021/01/10 12:05:47;;;;;;;14.32;8.80;;;2.90;99.90;;;;;;4993826;28;20617;-78
2021/01/10 12:08:13;;;;;;;18.90;9.23;;;2.90;99.90;;;;;;4982824;28;20221;-77
2021/01/10 12:10:39;;;;;;;19.53;9.80;;;2.90;99.90;;;;;;4994856;28;20233;-77
2021/01/10 12:13:05;;;;;;;11.50;8.18;;;2.80;99.90;;;;;;4981620;28;20517;-78
2021/01/10 12:15:33;;;;;;;11.75;7.63;;;2.90;99.90;;;;;;4991391;28;20174;-78
2021/01/10 12:18:03;;;;;;;14.30;8.25;;;2.80;99.90;;;;;;4988257;28;20818;-77
2021/01/10 12:20:29;;;;;;;16.63;8.27;;;2.80;99.90;;;;;;4995753;28;20198;-77
2021/01/10 12:22:55;;;;;;;8.80;5.85;;;2.90;99.90;;;;;;4995047;28;20214;-79
2021/01/10 12:25:21;;;;;;;16.38;6.65;;;2.90;99.90;;;;;;4994797;28;20204;-78
2021/01/10 12:27:48;;;;;;;13.15;6.35;;;2.90;99.90;;;;;;4996273;28;20214;-77
2021/01/10 12:30:16;;;;;;;9.95;6.10;;;2.90;99.90;;;;;;5010300;28;20189;-78
2021/01/10 12:32:42;;;;;;;10.25;5.07;;;2.90;99.90;;;;;;4993973;28;20222;-77
2021/01/10 12:35:10;;;;;;;11.13;6.23;;;2.90;99.90;;;;;;4995943;28;20182;-77
2021/01/10 12:37:36;;;;;;;8.35;5.43;;;2.90;99.90;;;;;;4994246;28;20217;-77
2021/01/10 12:40:05;;;;;;;10.30;6.10;;;2.90;99.90;;;;;;4978502;28;20251;-77
2021/01/10 12:42:33;;;;;;;16.33;6.53;;;3.00;99.90;;;;;;4994188;28;20747;-77
2021/01/10 12:45:01;;;;;;;11.02;5.65;;;3.00;99.90;;;;;;4988035;28;20198;-76
2021/01/10 12:47:27;;;;;;;7.68;5.35;;;3.00;99.90;;;;;;4993611;28;20205;-77
2021/01/10 12:49:52;;;;;;;11.73;5.90;;;3.00;99.90;;;;;;4994352;28;20175;-77
2021/01/10 12:52:18;;;;;;;8.33;5.30;;;3.00;99.90;;;;;;4993523;28;20500;-77